createdAt,value
2023-05-25T00:01:01.291Z,3.50
2023-05-25T00:06:00.778Z,3.33
2023-05-25T00:10:58.438Z,3.58
2023-05-25T00:15:55.406Z,3.15
2023-05-25T00:20:53.547Z,2.83
2023-05-25T00:25:50.542Z,3.97
2023-05-25T00:30:48.124Z,4.07
2023-05-25T00:35:46.221Z,3.67
2023-05-25T00:40:46.360Z,3.70
2023-05-25T00:45:43.377Z,3.45
2023-05-25T00:50:42.668Z,3.72
2023-05-25T00:55:44.281Z,3.97
2023-05-25T01:00:43.721Z,4.68
2023-05-25T01:05:44.545Z,3.75
2023-05-25T01:10:42.881Z,4.25
2023-05-25T01:15:42.672Z,5.13
2023-05-25T01:20:51.155Z,4.25
2023-05-25T01:25:53.928Z,4.55
2023-05-25T01:30:51.372Z,4.78
2023-05-25T01:35:50.608Z,4.70
2023-05-25T01:40:47.448Z,4.32
2023-05-25T01:45:44.678Z,3.70
2023-05-25T01:50:51.884Z,4.35
2023-05-25T01:55:56.793Z,4.18
2023-05-25T02:00:56.270Z,3.70
2023-05-25T02:05:54.621Z,4.68
2023-05-25T02:10:51.539Z,4.55
2023-05-25T02:15:48.520Z,3.33
2023-05-25T02:20:47.918Z,4.32
2023-05-25T02:25:46.173Z,4.63
2023-05-25T02:30:43.357Z,3.95
2023-05-25T02:35:41.299Z,4.25
2023-05-25T02:40:40.719Z,3.78
2023-05-25T02:45:38.296Z,3.88
2023-05-25T02:50:35.567Z,4.43
2023-05-25T02:55:37.410Z,4.18
2023-05-25T03:00:34.535Z,3.90
2023-05-25T03:05:34.655Z,3.90
2023-05-25T03:10:31.607Z,4.25
2023-05-25T03:15:28.480Z,4.15
2023-05-25T03:20:27.017Z,3.72
2023-05-25T03:25:25.941Z,4.63
2023-05-25T03:30:23.615Z,4.15
2023-05-25T03:35:23.828Z,3.78
2023-05-25T03:40:21.073Z,4.03
2023-05-25T03:45:18.886Z,5.30
2023-05-25T03:50:18.034Z,5.07
2023-05-25T03:55:15.014Z,4.90
2023-05-25T04:00:13.492Z,4.72
2023-05-25T04:05:12.202Z,5.20
2023-05-25T04:10:09.797Z,5.32
2023-05-25T04:15:08.833Z,4.55
2023-05-25T04:20:16.222Z,4.38
2023-05-25T04:25:13.280Z,4.28
2023-05-25T04:30:11.287Z,3.80
2023-05-25T04:35:44.962Z,3.90
2023-05-25T04:40:42.892Z,4.55
2023-05-25T04:45:43.992Z,3.95
2023-05-25T04:50:42.241Z,3.90
2023-05-25T04:55:44.101Z,3.85
2023-05-25T05:00:43.738Z,4.78
2023-05-25T05:05:43.218Z,4.78
2023-05-25T05:10:44.691Z,6.28
2023-05-25T05:15:42.948Z,5.57
2023-05-25T05:20:40.518Z,5.07
2023-05-25T05:25:40.144Z,6.57
2023-05-25T05:30:37.956Z,4.82
2023-05-25T05:35:34.969Z,6.03
2023-05-25T05:40:39.193Z,5.07
2023-05-25T05:45:39.956Z,5.13
2023-05-25T05:50:39.643Z,4.22
2023-05-25T05:55:39.071Z,7.18
2023-05-25T06:00:40.122Z,5.32
2023-05-25T06:05:40.107Z,4.50
2023-05-25T06:10:37.808Z,4.38
2023-05-25T06:15:35.387Z,4.63
2023-05-25T06:25:37.267Z,5.68
2023-05-25T06:30:34.363Z,4.35
2023-05-25T06:35:35.125Z,5.25
2023-05-25T06:40:33.322Z,4.93
2023-05-25T06:45:30.226Z,4.82
2023-05-25T06:50:27.267Z,5.72
2023-05-25T06:55:27.113Z,5.25
2023-05-25T07:00:29.123Z,5.43
2023-05-25T07:05:26.403Z,5.40
2023-05-25T07:10:23.673Z,6.18
2023-05-25T07:15:21.106Z,5.20
2023-05-25T07:20:19.098Z,5.20
2023-05-25T07:25:16.912Z,4.85
2023-05-25T07:30:14.287Z,3.63
2023-05-25T07:35:11.240Z,3.88
2023-05-25T07:40:10.163Z,4.38
2023-05-25T07:45:11.993Z,4.68
2023-05-25T07:50:16.840Z,4.55
2023-05-25T07:55:14.740Z,3.78
2023-05-25T08:00:15.905Z,3.80
2023-05-25T08:05:17.135Z,4.47
2023-05-25T08:10:14.674Z,3.90
2023-05-25T08:15:12.937Z,3.20
2023-05-25T08:20:10.837Z,4.47
2023-05-25T08:25:08.474Z,3.60
2023-05-25T08:30:09.722Z,3.42
2023-05-25T08:35:09.851Z,3.97
2023-05-25T08:40:15.249Z,3.58
2023-05-25T08:45:26.517Z,3.38
2023-05-25T08:50:32.277Z,3.80
2023-05-25T08:55:34.948Z,3.45
2023-05-25T09:00:36.756Z,3.95
2023-05-25T09:05:37.487Z,2.88
2023-05-25T09:10:36.196Z,2.90
2023-05-25T09:15:34.032Z,3.28
2023-05-25T09:20:31.464Z,3.95
2023-05-25T09:25:29.098Z,3.55
2023-05-25T09:30:32.059Z,3.60
2023-05-25T09:35:30.294Z,3.10
2023-05-25T09:40:27.582Z,3.13
2023-05-25T09:45:24.523Z,2.97
2023-05-25T09:50:21.547Z,2.90
2023-05-25T09:55:19.859Z,3.17
2023-05-25T10:00:17.816Z,2.50
2023-05-25T10:05:18.404Z,3.10
2023-05-25T10:10:16.088Z,2.83
2023-05-25T10:15:14.335Z,2.92
2023-05-25T10:20:16.837Z,4.00
2023-05-25T10:25:22.877Z,3.00
2023-05-25T10:30:20.710Z,2.42
2023-05-25T10:35:19.147Z,3.10
2023-05-25T10:40:16.891Z,3.53
2023-05-25T10:45:14.132Z,2.97
2023-05-25T10:50:34.943Z,3.22
2023-05-25T10:56:05.361Z,3.08
2023-05-25T11:01:16.816Z,3.33
2023-05-25T11:06:16.159Z,3.40
2023-05-25T11:11:13.306Z,3.63
2023-05-25T11:16:21.618Z,4.38
2023-05-25T11:21:43.676Z,3.88
2023-05-25T11:26:54.198Z,3.25
2023-05-25T11:31:53.413Z,3.50
2023-05-25T11:36:55.521Z,3.25
2023-05-25T11:41:56.218Z,5.00
2023-05-25T11:47:00.912Z,4.22
2023-05-25T11:51:58.842Z,3.85
2023-05-25T11:56:58.728Z,3.58
2023-05-25T12:01:57.369Z,4.05
2023-05-25T12:07:02.892Z,3.95
2023-05-25T12:12:01.852Z,3.30
2023-05-25T12:16:58.871Z,3.25
2023-05-25T12:21:55.821Z,3.60
2023-05-25T12:26:56.816Z,3.40
2023-05-25T12:32:01.268Z,3.67
2023-05-25T12:36:58.261Z,3.95
2023-05-25T12:41:57.236Z,3.70
2023-05-25T12:46:55.590Z,3.97
2023-05-25T12:51:54.684Z,4.38
2023-05-25T12:56:56.137Z,3.80
2023-05-25T13:02:05.916Z,4.28
2023-05-25T13:07:03.453Z,7.75
2023-05-25T13:12:02.244Z,4.00
2023-05-25T13:16:59.255Z,3.10
2023-05-25T13:21:56.373Z,3.33
2023-05-25T13:26:53.856Z,4.10
2023-05-25T13:31:56.070Z,3.95
2023-05-25T13:36:53.709Z,4.70
2023-05-25T13:41:50.727Z,3.97
2023-05-25T13:46:47.804Z,4.20
2023-05-25T13:51:45.481Z,4.25
2023-05-25T13:56:42.285Z,4.35
2023-05-25T14:01:41.646Z,4.20
2023-05-25T14:06:38.652Z,3.50
2023-05-25T14:11:36.397Z,3.63
2023-05-25T14:16:33.620Z,3.22
2023-05-25T14:21:31.058Z,3.42
2023-05-25T14:26:30.495Z,4.22
2023-05-25T14:31:30.866Z,3.92
2023-05-25T14:36:27.803Z,4.00
2023-05-25T14:41:24.578Z,4.07
2023-05-25T14:46:21.460Z,4.03
2023-05-25T14:51:19.033Z,4.85
2023-05-25T14:56:18.852Z,3.95
2023-05-25T15:01:15.742Z,3.63
2023-05-25T15:06:12.627Z,7.88
2023-05-25T15:11:10.930Z,3.75
2023-05-25T15:16:11.224Z,2.53
2023-05-25T15:21:12.731Z,2.90
2023-05-25T15:26:12.215Z,3.05
2023-05-25T15:31:09.366Z,2.20
2023-05-25T15:36:06.748Z,2.72
2023-05-25T15:41:03.801Z,2.25
2023-05-25T15:46:04.218Z,1.85
2023-05-25T15:51:04.376Z,2.92
2023-05-25T15:56:01.236Z,3.50
2023-05-25T16:01:01.052Z,2.38
2023-05-25T16:05:58.807Z,2.90
2023-05-25T16:10:56.183Z,2.42
2023-05-25T16:15:53.179Z,2.33
2023-05-25T16:20:55.226Z,2.50
2023-05-25T16:25:52.844Z,2.10
2023-05-25T16:30:53.002Z,2.53
2023-05-25T16:35:53.012Z,2.40
2023-05-25T16:40:49.811Z,2.40
2023-05-25T16:45:47.978Z,2.20
2023-05-25T16:50:45.222Z,2.58
2023-05-25T16:55:51.388Z,3.88
2023-05-25T17:00:48.938Z,2.65
2023-05-25T17:05:48.851Z,2.67
2023-05-25T17:10:48.040Z,2.20
2023-05-25T17:15:51.458Z,3.30
2023-05-25T17:20:48.352Z,2.60
2023-05-25T17:25:46.651Z,3.15
2023-05-25T17:30:43.706Z,3.35
2023-05-25T17:35:41.231Z,3.15
2023-05-25T17:40:38.322Z,4.07
2023-05-25T17:45:37.268Z,2.83
2023-05-25T17:50:34.157Z,4.93
2023-05-25T17:55:31.717Z,3.25
2023-05-25T18:00:30.148Z,2.85
2023-05-25T18:05:27.635Z,3.08
2023-05-25T18:10:24.507Z,2.95
2023-05-25T18:15:22.402Z,2.65
2023-05-25T18:20:19.376Z,3.08
2023-05-25T18:25:16.417Z,2.70
2023-05-25T18:30:14.503Z,3.10
2023-05-25T18:35:12.082Z,2.50
2023-05-25T18:40:12.221Z,2.90
2023-05-25T18:45:09.902Z,3.05
2023-05-25T18:50:07.349Z,2.70
2023-05-25T18:55:06.229Z,2.85
2023-05-25T19:00:03.366Z,2.88
2023-05-25T19:05:00.192Z,3.00
2023-05-25T19:09:57.111Z,3.30
2023-05-25T19:14:54.543Z,3.25
2023-05-25T19:19:51.582Z,4.50
2023-05-25T19:25:00.219Z,3.42
2023-05-25T19:29:59.944Z,3.03
2023-05-25T19:34:56.813Z,3.35
2023-05-25T19:39:53.634Z,3.00
2023-05-25T19:44:50.454Z,3.05
2023-05-25T19:49:48.096Z,3.67
2023-05-25T19:54:45.329Z,2.83
2023-05-25T19:59:42.734Z,3.42
2023-05-25T20:04:41.355Z,2.95
2023-05-25T20:09:39.001Z,3.20
2023-05-25T20:14:35.783Z,4.07
2023-05-25T20:19:32.652Z,3.92
2023-05-25T20:24:31.705Z,3.70
2023-05-25T20:29:32.167Z,3.92
2023-05-25T20:34:29.008Z,3.25
2023-05-25T20:39:28.844Z,3.67
2023-05-25T20:44:25.669Z,3.58
2023-05-25T20:49:25.825Z,3.47
2023-05-25T20:54:23.089Z,3.22
2023-05-25T20:59:19.847Z,3.17
2023-05-25T21:04:16.766Z,3.50
2023-05-25T21:09:14.398Z,4.75
2023-05-25T21:14:13.337Z,4.07
2023-05-25T21:19:10.944Z,4.97
2023-05-25T21:24:08.135Z,5.88
2023-05-25T21:29:07.066Z,6.10
2023-05-25T21:34:03.841Z,4.05
2023-05-25T21:39:00.644Z,3.78
2023-05-25T21:43:57.474Z,4.00
2023-05-25T21:48:55.279Z,3.90
2023-05-25T21:53:52.092Z,4.32
2023-05-25T21:58:48.910Z,3.80
2023-05-25T22:03:45.678Z,4.78
2023-05-25T22:08:43.516Z,4.55
2023-05-25T22:13:40.708Z,3.90
2023-05-25T22:18:38.552Z,4.45
2023-05-25T22:23:35.680Z,5.72
2023-05-25T22:28:33.170Z,4.07
2023-05-25T22:33:30.057Z,4.55
2023-05-25T22:38:26.927Z,4.50
2023-05-25T22:43:24.310Z,4.43
2023-05-25T22:48:21.929Z,4.75
2023-05-25T22:53:18.795Z,4.93
2023-05-25T22:58:15.591Z,4.20
2023-05-25T23:03:12.572Z,4.20
2023-05-25T23:08:10.130Z,4.18
2023-05-25T23:13:07.241Z,5.00
2023-05-25T23:18:04.235Z,4.70
2023-05-25T23:23:01.228Z,4.97
2023-05-25T23:27:58.741Z,4.82
2023-05-25T23:32:55.634Z,5.03
2023-05-25T23:37:52.494Z,4.53
2023-05-25T23:42:51.840Z,3.85
2023-05-25T23:47:49.489Z,3.50
2023-05-25T23:52:46.368Z,3.72
2023-05-25T23:57:43.134Z,3.92
